Terminal Aerodrome Forecast
Issued by NWS

Current Version | Previous Version | Text Only | Print | Product List | Glossary On
Versions: 1 2 3 4 5 6 7 8 9 10 11 12 13 14 15 16 17 18 19 20 21 22
000
FTUS41 KPBZ 182300
TAFHLG
TAF
KHLG 182340Z 1900/1924 05005KT P6SM SCT060
     FM190900 VRB03KT 2SM BR SKC
     FM191400 12005KT P6SM SKC=

USA.gov is the U.S. government's official web portal to all federal, state and local government web resources and services.